createdAt,value
2019-02-10T00:02:40.488Z,7.75
2019-02-10T00:05:27.030Z,7.73
2019-02-10T00:08:13.706Z,7.75
2019-02-10T00:11:03.907Z,7.72
2019-02-10T00:13:50.816Z,7.69
2019-02-10T00:16:37.199Z,7.77
2019-02-10T00:19:24.196Z,7.73
2019-02-10T00:22:12.629Z,7.72
2019-02-10T00:24:59.866Z,7.78
2019-02-10T00:27:46.845Z,7.66
2019-02-10T00:30:33.684Z,7.61
2019-02-10T00:33:20.250Z,7.66
2019-02-10T00:36:07.222Z,7.60
2019-02-10T00:38:54.773Z,7.58
2019-02-10T00:41:45.321Z,7.57
2019-02-10T00:44:33.588Z,7.54
2019-02-10T00:47:20.119Z,7.56
2019-02-10T00:50:06.740Z,7.60
2019-02-10T00:52:54.004Z,7.52
2019-02-10T00:55:40.813Z,7.47
2019-02-10T00:58:27.416Z,7.53
2019-02-10T01:01:14.237Z,7.55
2019-02-10T01:04:00.937Z,7.57
2019-02-10T01:06:47.575Z,7.58
2019-02-10T01:09:34.687Z,7.52
2019-02-10T01:12:22.612Z,7.54
2019-02-10T01:15:09.224Z,7.49
2019-02-10T01:17:56.637Z,7.60
2019-02-10T01:20:46.027Z,7.64
2019-02-10T01:23:32.616Z,7.70
2019-02-10T01:26:20.748Z,7.62
2019-02-10T01:29:07.471Z,7.67
2019-02-10T01:31:54.165Z,7.63
2019-02-10T01:34:41.339Z,7.63
2019-02-10T01:37:27.891Z,7.64
2019-02-10T01:40:14.904Z,7.63
2019-02-10T01:43:02.637Z,7.68
2019-02-10T01:45:49.275Z,7.71
2019-02-10T01:48:35.946Z,7.84
2019-02-10T01:51:24.993Z,7.88
2019-02-10T01:54:12.675Z,7.78
2019-02-10T01:56:59.429Z,7.82
2019-02-10T01:59:46.884Z,7.87
2019-02-10T02:02:34.000Z,7.76
2019-02-10T02:05:21.351Z,7.74
2019-02-10T02:08:08.873Z,7.79
2019-02-10T02:10:55.255Z,7.77
2019-02-10T02:13:42.397Z,7.79
2019-02-10T02:16:29.501Z,7.78
2019-02-10T02:19:16.425Z,7.81
2019-02-10T02:22:02.910Z,7.83
2019-02-10T02:24:51.761Z,7.80
2019-02-10T02:27:38.873Z,7.89
2019-02-10T02:30:25.871Z,7.91
2019-02-10T02:33:14.104Z,7.88
2019-02-10T02:36:00.892Z,7.88
2019-02-10T02:38:47.789Z,7.89
2019-02-10T02:41:34.595Z,7.94
2019-02-10T02:44:21.258Z,7.95
2019-02-10T02:47:08.301Z,7.89
2019-02-10T02:49:54.896Z,7.86
2019-02-10T02:52:41.665Z,7.74
2019-02-10T02:55:28.709Z,7.75
2019-02-10T02:58:15.160Z,7.64
2019-02-10T03:01:01.828Z,7.58
2019-02-10T03:03:49.057Z,7.48
2019-02-10T03:06:44.778Z,7.34
2019-02-10T03:09:31.696Z,7.33
2019-02-10T03:12:18.994Z,7.30
2019-02-10T03:15:05.879Z,7.24
2019-02-10T03:17:51.997Z,7.17
2019-02-10T03:20:39.458Z,7.09
2019-02-10T03:23:26.097Z,7.08
2019-02-10T03:26:12.739Z,7.04
2019-02-10T03:29:00.062Z,6.97
2019-02-10T03:31:47.034Z,6.95
2019-02-10T03:34:34.181Z,6.87
2019-02-10T03:37:26.977Z,6.88
2019-02-10T03:40:10.454Z,6.85
2019-02-10T03:42:57.301Z,6.83
2019-02-10T03:45:44.425Z,6.79
2019-02-10T03:48:32.779Z,6.83
2019-02-10T03:51:19.458Z,6.82
2019-02-10T03:54:06.820Z,6.83
2019-02-10T03:56:53.309Z,6.79
2019-02-10T03:59:42.258Z,6.72
2019-02-10T04:02:29.065Z,6.76
2019-02-10T04:05:18.907Z,6.68
2019-02-10T04:08:05.460Z,6.69
2019-02-10T04:10:52.403Z,6.69
2019-02-10T04:13:38.878Z,6.64
2019-02-10T04:16:25.528Z,6.65
2019-02-10T04:19:12.585Z,6.64
2019-02-10T04:21:59.236Z,6.62
2019-02-10T04:24:46.128Z,6.63
2019-02-10T04:27:33.330Z,6.56
2019-02-10T04:30:20.338Z,6.55
2019-02-10T04:33:07.174Z,6.54
2019-02-10T04:35:54.497Z,6.49
2019-02-10T04:38:41.179Z,6.44
2019-02-10T04:41:27.800Z,6.46
2019-02-10T04:44:14.922Z,6.43
2019-02-10T04:47:01.739Z,6.33
2019-02-10T04:49:48.517Z,6.36
2019-02-10T04:52:35.640Z,6.37
2019-02-10T04:55:22.163Z,6.35
2019-02-10T04:58:08.669Z,6.34
2019-02-10T05:00:55.631Z,6.25
2019-02-10T05:03:41.976Z,6.21
2019-02-10T05:06:28.802Z,6.19
2019-02-10T05:09:17.058Z,6.16
2019-02-10T05:12:03.707Z,6.13
2019-02-10T05:14:50.646Z,6.10
2019-02-10T05:17:38.190Z,6.10
2019-02-10T05:20:25.119Z,6.10
2019-02-10T05:23:12.111Z,6.12
2019-02-10T05:25:59.126Z,6.08
2019-02-10T05:28:45.601Z,6.05
2019-02-10T05:31:32.453Z,6.05
2019-02-10T05:34:19.149Z,6.03
2019-02-10T05:37:06.192Z,6.06
2019-02-10T05:39:53.685Z,6.03
2019-02-10T05:42:40.179Z,6.03
2019-02-10T05:45:26.783Z,6.05
2019-02-10T05:48:13.914Z,5.98
2019-02-10T05:51:00.761Z,5.96
2019-02-10T05:53:47.451Z,5.96
2019-02-10T05:56:34.466Z,5.94
2019-02-10T05:59:21.264Z,5.93
2019-02-10T06:02:20.167Z,5.92
2019-02-10T06:05:09.740Z,5.94
2019-02-10T06:07:56.496Z,5.92
2019-02-10T06:10:43.459Z,5.91
2019-02-10T06:13:30.437Z,5.90
2019-02-10T06:16:17.007Z,5.88
2019-02-10T06:19:03.731Z,5.92
2019-02-10T06:21:50.186Z,5.91
2019-02-10T06:24:37.033Z,5.94
2019-02-10T06:27:23.803Z,5.93
2019-02-10T06:30:11.023Z,5.92
2019-02-10T06:32:57.988Z,5.91
2019-02-10T06:35:45.385Z,5.92
2019-02-10T06:38:32.314Z,5.96
2019-02-10T06:41:19.015Z,5.98
2019-02-10T06:44:06.266Z,5.97
2019-02-10T06:46:52.939Z,6.02
2019-02-10T06:49:39.733Z,6.02
2019-02-10T06:52:26.751Z,6.07
2019-02-10T06:55:13.669Z,6.09
2019-02-10T06:58:00.882Z,6.10
2019-02-10T07:00:57.798Z,6.15
2019-02-10T07:03:58.988Z,6.25
2019-02-10T07:06:45.592Z,6.34
2019-02-10T07:09:32.731Z,6.46
2019-02-10T07:12:44.870Z,6.53
2019-02-10T07:16:09.107Z,6.71
2019-02-10T07:19:34.104Z,6.77
2019-02-10T07:23:01.879Z,6.80
2019-02-10T07:25:53.195Z,6.88
2019-02-10T07:29:21.171Z,7.00
2019-02-10T07:32:15.822Z,7.12
2019-02-10T07:35:22.305Z,7.22
2019-02-10T07:38:53.594Z,7.22
2019-02-10T07:42:35.863Z,7.34
2019-02-10T07:45:59.579Z,7.39
2019-02-10T07:49:02.748Z,7.39
2019-02-10T07:52:10.591Z,7.46
2019-02-10T07:55:24.320Z,7.46
2019-02-10T07:58:55.875Z,7.46
2019-02-10T08:02:27.535Z,7.54
2019-02-10T08:05:59.842Z,7.61
2019-02-10T08:09:14.890Z,7.69
2019-02-10T08:12:39.731Z,7.74
2019-02-10T08:15:55.187Z,7.78
2019-02-10T08:19:17.870Z,7.79
2019-02-10T08:22:58.499Z,7.95
2019-02-10T08:26:32.513Z,7.99
2019-02-10T08:29:56.499Z,7.97
2019-02-10T08:33:30.324Z,8.02
2019-02-10T08:37:12.008Z,8.01
2019-02-10T08:41:00.325Z,8.03
2019-02-10T08:44:20.428Z,8.13
2019-02-10T08:47:40.180Z,8.18
2019-02-10T08:50:52.544Z,8.28
2019-02-10T08:53:43.453Z,8.39
2019-02-10T08:56:30.480Z,8.32
2019-02-10T08:59:17.183Z,8.36
2019-02-10T09:02:03.899Z,8.45
2019-02-10T09:04:55.099Z,8.46
2019-02-10T09:07:42.019Z,8.68
2019-02-10T09:10:28.627Z,8.88
2019-02-10T09:13:18.823Z,8.82
2019-02-10T09:16:06.200Z,8.92
2019-02-10T09:18:52.747Z,8.95
2019-02-10T09:21:39.244Z,8.95
2019-02-10T09:24:26.264Z,9.06
2019-02-10T09:27:12.859Z,9.08
2019-02-10T09:29:59.828Z,9.07
2019-02-10T09:32:46.979Z,9.20
2019-02-10T09:35:33.905Z,9.32
2019-02-10T09:38:21.129Z,9.41
2019-02-10T09:41:08.377Z,9.46
2019-02-10T09:43:55.045Z,9.41
2019-02-10T09:46:41.711Z,9.48
2019-02-10T09:49:31.544Z,9.53
2019-02-10T09:52:18.385Z,9.47
2019-02-10T09:55:07.850Z,9.45
2019-02-10T09:57:56.706Z,9.49
2019-02-10T10:00:42.994Z,9.41
2019-02-10T10:03:30.288Z,9.44
2019-02-10T10:06:16.904Z,9.64
2019-02-10T10:09:19.780Z,9.62
2019-02-10T10:12:13.989Z,9.77
2019-02-10T10:15:00.869Z,9.84
2019-02-10T10:17:49.388Z,10.00
2019-02-10T10:20:35.841Z,10.08
2019-02-10T10:23:22.793Z,10.14
2019-02-10T10:26:12.551Z,10.13
2019-02-10T10:29:01.699Z,10.08
2019-02-10T10:31:48.825Z,10.09
2019-02-10T10:34:35.202Z,10.01
2019-02-10T10:37:21.835Z,9.93
2019-02-10T10:40:09.169Z,9.86
2019-02-10T10:42:55.925Z,9.81
2019-02-10T10:45:42.459Z,9.77
2019-02-10T10:48:29.609Z,9.64
2019-02-10T10:51:16.129Z,9.50
2019-02-10T10:54:02.665Z,9.36
2019-02-10T10:56:49.702Z,9.35
2019-02-10T10:59:38.820Z,9.20
2019-02-10T11:02:28.571Z,9.17
2019-02-10T11:05:25.901Z,9.06
2019-02-10T11:08:12.588Z,8.98
2019-02-10T11:10:59.213Z,8.92
2019-02-10T11:13:47.257Z,8.86
2019-02-10T11:16:34.152Z,8.82
2019-02-10T11:19:20.569Z,8.78
2019-02-10T11:22:07.541Z,8.77
2019-02-10T11:24:55.676Z,8.73
2019-02-10T11:27:42.589Z,8.74
2019-02-10T11:30:29.722Z,8.82
2019-02-10T11:33:16.256Z,8.81
2019-02-10T11:36:03.113Z,8.84
2019-02-10T11:38:50.118Z,8.89
2019-02-10T11:41:37.955Z,8.92
2019-02-10T11:44:24.570Z,8.99
2019-02-10T11:47:11.751Z,8.99
2019-02-10T11:49:58.579Z,9.02
2019-02-10T11:52:46.256Z,8.97
2019-02-10T11:55:34.314Z,9.02
2019-02-10T11:58:21.024Z,9.01
2019-02-10T12:01:07.832Z,9.01
2019-02-10T12:03:55.268Z,9.04
2019-02-10T12:06:46.960Z,9.10
2019-02-10T12:09:36.397Z,9.14
2019-02-10T12:12:23.552Z,9.21
2019-02-10T12:15:10.660Z,9.23
2019-02-10T12:18:00.113Z,9.23
2019-02-10T12:20:48.874Z,9.17
2019-02-10T12:23:35.705Z,9.18
2019-02-10T12:26:23.641Z,9.23
2019-02-10T12:29:10.917Z,9.26
2019-02-10T12:31:58.097Z,9.37
2019-02-10T12:34:45.136Z,9.32
2019-02-10T12:37:34.634Z,9.39
2019-02-10T12:40:22.975Z,9.39
2019-02-10T12:43:10.426Z,9.35
2019-02-10T12:45:57.061Z,9.30
2019-02-10T12:48:43.717Z,9.37
2019-02-10T12:51:31.333Z,9.56
2019-02-10T12:54:17.751Z,9.51
2019-02-10T12:57:04.602Z,9.52
2019-02-10T12:59:52.087Z,9.51
2019-02-10T13:02:41.010Z,9.44
2019-02-10T13:05:36.746Z,9.30
2019-02-10T13:08:26.567Z,9.27
2019-02-10T13:11:13.048Z,9.21
2019-02-10T13:14:05.459Z,9.14
2019-02-10T13:16:54.320Z,9.06
2019-02-10T13:19:47.628Z,8.92
2019-02-10T13:22:41.890Z,8.84
2019-02-10T13:25:29.598Z,8.74
2019-02-10T13:28:18.262Z,8.74
2019-02-10T13:31:04.626Z,8.73
2019-02-10T13:33:51.590Z,8.75
2019-02-10T13:36:38.602Z,8.65
2019-02-10T13:39:25.003Z,8.65
2019-02-10T13:42:12.478Z,8.64
2019-02-10T13:44:59.562Z,8.58
2019-02-10T13:47:48.796Z,8.47
2019-02-10T13:50:35.638Z,8.34
2019-02-10T13:53:22.495Z,8.25
2019-02-10T13:56:09.074Z,8.23
2019-02-10T13:58:56.574Z,8.21
2019-02-10T14:01:50.710Z,8.29
2019-02-10T14:04:37.318Z,8.40
2019-02-10T14:07:24.587Z,8.47
2019-02-10T14:10:11.575Z,8.54
2019-02-10T14:13:03.127Z,8.53
2019-02-10T14:15:49.974Z,8.43
2019-02-10T14:18:36.765Z,8.46
2019-02-10T14:27:21.115Z,8.46
2019-02-10T14:30:09.712Z,8.34
2019-02-10T14:32:56.447Z,8.24
2019-02-10T14:35:45.528Z,8.19
2019-02-10T14:38:36.043Z,8.17
2019-02-10T14:41:24.100Z,8.14
2019-02-10T14:44:12.344Z,8.13
2019-02-10T14:47:00.780Z,8.16
2019-02-10T14:49:47.472Z,8.14
2019-02-10T14:52:37.609Z,8.09
2019-02-10T14:55:24.028Z,8.11
2019-02-10T14:58:10.835Z,8.09
2019-02-10T15:00:57.967Z,8.10
2019-02-10T15:03:50.375Z,8.10
2019-02-10T15:06:38.886Z,8.17
2019-02-10T15:09:26.017Z,8.14
2019-02-10T15:12:13.433Z,8.14
2019-02-10T15:14:59.955Z,8.17
2019-02-10T15:17:50.470Z,8.10
2019-02-10T15:20:40.750Z,8.08
2019-02-10T15:23:29.931Z,8.04
2019-02-10T15:26:16.978Z,8.04
2019-02-10T15:29:05.702Z,8.00
2019-02-10T15:31:52.368Z,8.00
2019-02-10T15:34:39.339Z,7.92
2019-02-10T15:37:25.956Z,7.93
2019-02-10T15:40:12.883Z,7.84
2019-02-10T15:43:00.371Z,7.75
2019-02-10T15:45:52.801Z,7.74
2019-02-10T15:48:58.868Z,7.69
2019-02-10T15:51:46.146Z,7.62
2019-02-10T15:54:32.704Z,7.64
2019-02-10T15:57:20.156Z,7.60
2019-02-10T16:00:10.232Z,7.55
2019-02-10T16:02:56.706Z,7.52
2019-02-10T16:05:43.736Z,7.53
2019-02-10T16:08:30.599Z,7.50
2019-02-10T16:11:17.079Z,7.39
2019-02-10T16:14:04.153Z,7.31
2019-02-10T16:16:50.775Z,7.33
2019-02-10T16:19:37.435Z,7.28
2019-02-10T16:22:24.290Z,7.31
2019-02-10T16:25:11.000Z,7.26
2019-02-10T16:27:58.343Z,7.23
2019-02-10T16:30:47.256Z,7.24
2019-02-10T16:36:22.594Z,7.22
2019-02-10T16:39:13.139Z,7.20
2019-02-10T16:41:59.683Z,7.19
2019-02-10T16:44:48.933Z,7.15
2019-02-10T16:47:43.358Z,7.16
2019-02-10T16:50:34.018Z,7.15
2019-02-10T16:53:21.091Z,7.06
2019-02-10T16:59:11.356Z,7.03
2019-02-10T17:01:58.141Z,7.01
2019-02-10T17:04:46.016Z,7.02
2019-02-10T17:10:20.889Z,6.84
2019-02-10T17:13:07.526Z,6.37
2019-02-10T17:16:04.790Z,6.09
2019-02-10T17:18:46.183Z,6.13
2019-02-10T17:21:32.768Z,6.15
2019-02-10T17:24:20.840Z,6.27
2019-02-10T17:27:09.796Z,6.38
2019-02-10T17:29:56.587Z,6.50
2019-02-10T17:32:43.577Z,6.58
2019-02-10T17:41:41.773Z,6.61
2019-02-10T17:44:28.161Z,6.64
2019-02-10T17:47:18.797Z,6.65
2019-02-10T17:50:09.738Z,6.60
2019-02-10T17:52:56.303Z,6.42
2019-02-10T17:55:42.943Z,6.22
2019-02-10T17:58:30.230Z,6.07
2019-02-10T18:01:19.034Z,5.76
2019-02-10T18:04:05.670Z,5.57
2019-02-10T18:06:52.687Z,5.53
2019-02-10T18:09:39.621Z,5.53
2019-02-10T18:12:26.079Z,5.47
2019-02-10T18:15:38.575Z,5.51
2019-02-10T18:18:40.034Z,5.49
2019-02-10T18:21:35.583Z,5.42
2019-02-10T18:24:40.683Z,5.43
2019-02-10T18:27:39.074Z,5.31
2019-02-10T18:30:43.300Z,5.33
2019-02-10T18:33:42.896Z,5.06
2019-02-10T18:36:50.495Z,4.81
2019-02-10T18:39:47.545Z,4.69
2019-02-10T18:42:42.648Z,4.56
2019-02-10T18:46:02.334Z,4.45
2019-02-10T18:49:11.569Z,4.47
2019-02-10T18:58:58.935Z,3.90
2019-02-10T19:05:08.033Z,3.67
2019-02-10T19:08:00.166Z,3.49
2019-02-10T19:11:08.560Z,3.33
2019-02-10T19:14:12.586Z,3.33
2019-02-10T19:17:18.620Z,3.31
2019-02-10T19:20:31.116Z,3.25
2019-02-10T19:23:37.375Z,3.13
2019-02-10T19:26:33.211Z,3.13
2019-02-10T19:29:51.279Z,3.07
2019-02-10T19:32:45.424Z,3.16
2019-02-10T19:35:54.415Z,3.15
2019-02-10T19:39:16.607Z,3.15
2019-02-10T19:42:15.132Z,3.15
2019-02-10T19:45:19.075Z,3.20
2019-02-10T19:48:24.606Z,3.24
2019-02-10T19:51:28.619Z,3.21
2019-02-10T19:54:26.886Z,3.33
2019-02-10T19:57:30.424Z,3.21
2019-02-10T20:00:39.035Z,3.11
2019-02-10T20:03:43.531Z,3.00
2019-02-10T20:06:55.907Z,2.92
2019-02-10T20:10:10.504Z,2.86
2019-02-10T20:13:15.625Z,2.96
2019-02-10T20:16:06.651Z,2.92
2019-02-10T20:19:18.583Z,2.87
2019-02-10T20:22:15.543Z,2.84
2019-02-10T20:25:08.955Z,2.84
2019-02-10T20:28:29.689Z,2.82
2019-02-10T20:31:33.820Z,2.87
2019-02-10T20:34:38.344Z,2.94
2019-02-10T20:37:42.446Z,2.83
2019-02-10T20:40:49.345Z,2.82
2019-02-10T20:43:56.121Z,2.84
2019-02-10T20:46:56.246Z,2.85
2019-02-10T20:50:09.064Z,2.88
2019-02-10T20:53:17.392Z,2.84
2019-02-10T20:56:10.924Z,2.88
2019-02-10T20:59:03.799Z,2.90
2019-02-10T21:02:04.948Z,2.93
2019-02-10T21:05:11.520Z,2.94
2019-02-10T21:08:08.671Z,2.92
2019-02-10T21:11:33.069Z,3.00
2019-02-10T21:14:28.183Z,2.96
2019-02-10T21:17:34.743Z,3.00
2019-02-10T21:20:47.258Z,2.97
2019-02-10T21:23:51.680Z,2.94
2019-02-10T21:27:00.814Z,3.03
2019-02-10T21:33:27.593Z,3.04
2019-02-10T21:36:39.114Z,3.06
2019-02-10T21:39:47.323Z,3.06
2019-02-10T21:42:58.866Z,3.00
2019-02-10T21:46:03.642Z,3.02
2019-02-10T21:48:54.964Z,3.01
2019-02-10T21:51:40.958Z,3.02
2019-02-10T21:54:27.350Z,2.87
2019-02-10T21:57:13.340Z,2.87
2019-02-10T21:59:59.488Z,2.86
2019-02-10T22:02:46.047Z,2.92
2019-02-10T22:05:31.869Z,2.93
2019-02-10T22:08:18.376Z,2.93
2019-02-10T22:11:06.831Z,2.84
2019-02-10T22:13:54.406Z,2.77
2019-02-10T22:16:40.387Z,2.78
2019-02-10T22:19:26.830Z,2.82
2019-02-10T22:22:12.806Z,2.74
2019-02-10T22:24:59.134Z,2.70
2019-02-10T22:27:45.361Z,2.73
2019-02-10T22:30:31.746Z,2.63
2019-02-10T22:33:17.886Z,2.65
2019-02-10T22:36:04.157Z,2.68
2019-02-10T22:45:10.935Z,2.74
2019-02-10T22:47:57.086Z,2.61
2019-02-10T22:50:43.083Z,2.63
2019-02-10T22:53:29.318Z,2.62
2019-02-10T22:56:17.084Z,2.53
2019-02-10T22:59:02.923Z,2.54
2019-02-10T23:01:49.166Z,2.47
2019-02-10T23:04:37.787Z,2.59
2019-02-10T23:07:26.523Z,2.64
2019-02-10T23:10:18.091Z,2.68
2019-02-10T23:13:06.285Z,2.64
2019-02-10T23:15:52.491Z,2.65
2019-02-10T23:18:40.030Z,2.86
2019-02-10T23:21:25.914Z,2.77
2019-02-10T23:24:13.465Z,2.78
2019-02-10T23:26:59.884Z,2.83
2019-02-10T23:29:45.883Z,2.82
2019-02-10T23:32:31.912Z,2.80
2019-02-10T23:35:18.815Z,2.82
2019-02-10T23:38:05.100Z,2.84
2019-02-10T23:40:57.471Z,2.93
2019-02-10T23:43:46.188Z,2.87
2019-02-10T23:46:32.297Z,2.89
2019-02-10T23:49:18.814Z,2.98
2019-02-10T23:52:04.794Z,2.95
2019-02-10T23:54:51.288Z,2.95
2019-02-10T23:57:40.266Z,2.94
